Time;durP1;ratioP1;P1;durP2;ratioP2;P2;SDS_P1;SDS_P2;PMS_P1;PMS_P2;Temp;Humidity;BMP_temperature;BMP_pressure;BME280_temperature;BME280_humidity;BME280_pressure;Samples;Min_cycle;Max_cycle;Signal;HPM_P1;HPM_P2
2021/12/29 00:02:12;;;;;;;;;1.50;1.50;;;;;11.17;73.96;100335.25;5065862;27;45645;-71
2021/12/29 00:04:37;;;;;;;;;9.50;7.25;;;;;11.10;73.44;100325.84;5065812;27;46090;-69
2021/12/29 00:07:03;;;;;;;;;11.00;4.50;;;;;11.15;73.82;100353.00;5063484;27;45510;-70
2021/12/29 00:09:32;;;;;;;;;6.75;5.25;;;;;11.05;74.12;100341.06;5066146;28;45446;-70
2021/12/29 00:11:57;;;;;;;;;6.25;5.00;;;;;11.16;73.97;100367.09;5065541;28;45548;-70
2021/12/29 00:14:23;;;;;;;;;5.00;4.00;;;;;11.04;73.64;100340.22;5064993;28;46990;-71
2021/12/29 00:16:48;;;;;;;;;5.00;2.50;;;;;11.04;73.46;100361.41;5061170;28;45622;-70
2021/12/29 00:19:13;;;;;;;;;7.50;4.25;;;;;10.86;73.51;100328.63;5065935;28;45728;-70
2021/12/29 00:21:39;;;;;;;;;16.75;8.25;;;;;11.06;74.08;100364.84;5064726;27;45733;-70
2021/12/29 00:24:05;;;;;;;;;5.75;1.75;;;;;11.17;73.88;100388.22;5064079;28;46120;-70
2021/12/29 00:26:32;;;;;;;;;9.75;7.50;;;;;11.03;74.14;100358.81;5065006;28;45785;-70
2021/12/29 00:29:00;;;;;;;;;7.75;5.50;;;;;11.15;73.32;100390.09;5063185;28;45588;-70
2021/12/29 00:31:27;;;;;;;;;7.50;5.00;;;;;11.11;73.80;100377.88;5062641;28;45562;-70
2021/12/29 00:33:54;;;;;;;;;9.75;6.25;;;;;10.67;73.87;100309.97;5060619;27;46410;-70
2021/12/29 00:36:20;;;;;;;;;13.75;5.50;;;;;11.04;73.52;100382.59;5069497;27;46438;-70
2021/12/29 00:38:45;;;;;;;;;17.25;9.50;;;;;11.07;73.57;100378.94;5071498;27;45474;-71
2021/12/29 00:41:12;;;;;;;;;11.00;7.25;;;;;11.15;73.68;100398.03;5064193;27;45471;-69
2021/12/29 00:43:37;;;;;;;;;12.50;4.00;;;;;11.23;73.52;100419.75;5079163;27;45392;-70
2021/12/29 00:46:04;;;;;;;;;6.25;3.50;;;;;10.80;73.54;100359.78;5065276;27;45442;-69
2021/12/29 00:48:36;;;;;;;;;5.50;4.25;;;;;11.11;74.04;100414.97;5070169;27;45494;-70
2021/12/29 00:51:02;;;;;;;;;12.75;7.75;;;;;11.03;73.49;100395.88;5058422;27;45656;-70
2021/12/29 00:53:28;;;;;;;;;5.50;2.50;;;;;11.17;73.16;100419.16;5070455;27;45560;-70
2021/12/29 00:55:53;;;;;;;;;26.50;13.75;;;;;11.05;73.91;100399.31;5074080;27;47030;-70
2021/12/29 00:58:19;;;;;;;;;23.50;8.75;;;;;11.06;73.45;100420.47;5060267;27;45462;-70
2021/12/29 01:00:45;;;;;;;;;14.50;6.50;;;;;11.06;73.87;100423.13;5053055;27;45463;-70
2021/12/29 01:03:11;;;;;;;;;9.75;7.00;;;;;11.08;73.35;100426.53;5066444;27;46193;-70
2021/12/29 01:05:38;;;;;;;;;19.00;10.00;;;;;11.04;73.66;100414.34;5058901;27;47152;-70
2021/12/29 01:08:04;;;;;;;;;11.25;8.25;;;;;11.18;73.47;100444.69;5062969;27;45305;-70
2021/12/29 01:10:30;;;;;;;;;14.50;5.00;;;;;11.16;73.47;100442.13;5058789;27;45741;-70
2021/12/29 01:13:01;;;;;;;;;9.25;4.00;;;;;11.20;73.62;100429.59;5070692;27;45530;-70
2021/12/29 01:15:47;;;;;;;;;9.00;6.00;;;;;11.19;72.97;100426.09;5071212;27;46014;-70
2021/12/29 01:18:12;;;;;;;;;21.00;15.75;;;;;11.05;73.21;100420.50;5045623;27;45475;-69
2021/12/29 01:20:38;;;;;;;;;11.25;4.75;;;;;11.18;73.27;100435.00;5059247;27;45511;-70
2021/12/29 01:23:04;;;;;;;;;9.50;4.00;;;;;11.17;73.56;100435.03;5063070;27;45999;-70
2021/12/29 01:25:29;;;;;;;;;7.00;7.00;;;;;11.05;72.96;100420.50;5062094;27;46117;-70
2021/12/29 01:27:54;;;;;;;;;20.50;8.50;;;;;11.14;73.35;100436.03;5065678;27;46105;-70
2021/12/29 01:30:20;;;;;;;;;5.25;2.00;;;;;11.03;72.53;100430.28;5064911;27;45522;-70
2021/12/29 01:32:45;;;;;;;;;13.50;9.00;;;;;11.07;72.92;100440.72;5061729;27;46118;-70
2021/12/29 01:35:12;;;;;;;;;6.50;5.00;;;;;11.15;73.48;100458.94;5060267;27;45643;-70
2021/12/29 01:37:38;;;;;;;;;21.50;12.00;;;;;11.14;73.15;100463.34;5059228;27;45573;-70
2021/12/29 01:40:07;;;;;;;;;24.25;10.50;;;;;11.15;73.41;100466.91;5060847;27;47078;-70
2021/12/29 01:42:33;;;;;;;;;29.75;15.75;;;;;11.16;72.53;100465.97;5061442;27;46095;-70
2021/12/29 01:44:59;;;;;;;;;14.75;7.25;;;;;11.15;73.28;100482.78;5070590;27;45693;-70
2021/12/29 01:47:30;;;;;;;;;8.50;5.00;;;;;11.13;72.96;100484.63;5059841;27;45479;-70
2021/12/29 01:49:57;;;;;;;;;49.50;27.00;;;;;11.14;72.49;100492.50;5057117;27;46054;-70
2021/12/29 01:52:27;;;;;;;;;7.75;4.00;;;;;11.05;72.46;100476.13;5059134;27;47265;-70
2021/12/29 01:54:52;;;;;;;;;30.75;20.25;;;;;10.94;72.54;100465.94;5064551;27;46852;-70
2021/12/29 01:57:19;;;;;;;;;70.25;38.00;;;;;11.00;72.84;100483.38;5063764;27;45725;-70
2021/12/29 01:59:44;;;;;;;;;60.00;27.00;;;;;10.98;72.67;100495.84;5058541;27;45500;-70
2021/12/29 02:02:14;;;;;;;;;66.25;33.50;;;;;11.10;72.13;100524.47;5058911;27;45702;-70
2021/12/29 02:04:44;;;;;;;;;7.50;3.00;;;;;10.90;72.60;100488.19;5052389;27;45447;-70
2021/12/29 02:07:09;;;;;;;;;30.00;21.75;;;;;11.10;72.55;100521.84;5058781;27;45498;-70
2021/12/29 02:09:35;;;;;;;;;5.50;2.75;;;;;11.03;72.81;100513.28;5060594;27;45573;-70
2021/12/29 02:12:02;;;;;;;;;6.75;3.50;;;;;11.05;72.77;100513.19;5058614;27;48132;-70
2021/12/29 02:14:27;;;;;;;;;29.00;14.25;;;;;10.81;72.60;100470.88;5061790;27;45478;-70
2021/12/29 02:16:53;;;;;;;;;6.75;4.00;;;;;11.09;73.08;100517.47;5036390;28;45604;-70
2021/12/29 02:19:18;;;;;;;;;10.75;8.00;;;;;11.04;72.63;100498.25;5056560;27;45420;-70
2021/12/29 02:21:51;;;;;;;;;20.25;9.50;;;;;11.07;72.24;100506.06;5057362;27;46831;-69
2021/12/29 02:24:19;;;;;;;;;6.00;4.00;;;;;10.95;72.73;100483.59;5063596;27;45508;-69
2021/12/29 02:26:46;;;;;;;;;11.25;6.00;;;;;11.13;73.00;100509.31;5063782;27;45433;-69
2021/12/29 02:29:17;;;;;;;;;9.50;8.50;;;;;11.13;72.59;100503.16;5063385;27;46881;-69
2021/12/29 02:31:43;;;;;;;;;9.50;4.75;;;;;10.95;72.26;100469.50;5060859;27;46302;-70
2021/12/29 02:34:11;;;;;;;;;4.25;3.25;;;;;11.10;72.50;100495.34;5043734;28;45557;-70
2021/12/29 02:36:43;;;;;;;;;6.50;6.00;;;;;11.14;71.76;100508.38;5067263;27;45690;-70
2021/12/29 02:39:10;;;;;;;;;8.00;4.00;;;;;11.06;72.31;100505.22;5063810;27;45734;-70
2021/12/29 02:41:36;;;;;;;;;17.25;12.25;;;;;11.06;72.33;100507.84;5063068;27;46481;-70
2021/12/29 02:44:04;;;;;;;;;11.25;7.50;;;;;11.06;72.29;100518.44;5063371;27;45521;-70
2021/12/29 02:46:31;;;;;;;;;9.25;6.00;;;;;11.11;71.56;100523.53;5063030;27;45529;-70
2021/12/29 02:49:02;;;;;;;;;6.75;5.75;;;;;11.08;71.67;100510.44;5070724;27;45541;-70
2021/12/29 02:51:30;;;;;;;;;8.50;5.50;;;;;10.90;72.28;100483.75;5068178;27;46109;-69
2021/12/29 02:53:55;;;;;;;;;9.50;6.00;;;;;11.05;72.18;100505.25;5076459;27;47412;-70
2021/12/29 02:56:26;;;;;;;;;19.25;15.50;;;;;11.05;71.36;100514.06;5059070;27;45515;-70
2021/12/29 02:58:52;;;;;;;;;6.25;4.50;;;;;11.07;71.53;100514.00;5046757;27;46797;-70
2021/12/29 03:01:19;;;;;;;;;16.00;12.00;;;;;11.09;71.53;100523.63;5070355;27;45704;-69
2021/12/29 03:03:44;;;;;;;;;19.25;15.00;;;;;11.11;71.89;100529.69;5063218;27;45795;-69
2021/12/29 03:06:11;;;;;;;;;39.25;23.75;;;;;11.12;71.46;100534.09;5062766;27;47178;-68
2021/12/29 03:08:37;;;;;;;;;9.50;5.00;;;;;11.01;71.49;100508.97;5062169;27;46672;-68
2021/12/29 03:11:04;;;;;;;;;3.75;2.00;;;;;10.98;71.39;100507.28;5060357;27;45498;-69
2021/12/29 03:13:32;;;;;;;;;2.75;2.00;;;;;10.74;71.33;100466.78;5059980;27;45789;-77
2021/12/29 03:15:58;;;;;;;;;11.00;4.25;;;;;11.06;71.38;100536.97;5069781;27;46426;-69
2021/12/29 03:18:24;;;;;;;;;5.75;4.25;;;;;10.96;71.12;100526.81;5071357;27;45418;-69
2021/12/29 03:20:49;;;;;;;;;10.25;8.50;;;;;10.81;71.26;100502.66;5053961;28;47358;-69
2021/12/29 03:23:16;;;;;;;;;26.75;12.75;;;;;10.96;71.45;100540.03;5069553;28;45476;-70
2021/12/29 03:25:42;;;;;;;;;19.75;11.50;;;;;10.90;71.37;100541.13;5049508;27;45413;-69
2021/12/29 03:28:08;;;;;;;;;9.75;5.50;;;;;10.93;71.91;100558.69;5069545;27;45478;-69
2021/12/29 03:30:36;;;;;;;;;8.50;5.00;;;;;10.68;71.79;100522.59;5069862;28;46634;-69
2021/12/29 03:33:07;;;;;;;;;8.75;7.50;;;;;10.92;72.09;100565.78;5069470;28;45442;-69
2021/12/29 03:35:37;;;;;;;;;6.00;4.00;;;;;10.95;71.81;100572.75;5067437;27;45328;-69
2021/12/29 03:38:05;;;;;;;;;8.50;5.00;;;;;10.86;71.46;100558.06;5068982;28;45503;-69
2021/12/29 03:40:31;;;;;;;;;5.00;2.00;;;;;10.86;71.45;100560.72;5070245;27;48045;-69
2021/12/29 03:42:57;;;;;;;;;6.25;4.25;;;;;10.88;71.97;100573.00;5066934;28;45704;-69
2021/12/29 03:45:23;;;;;;;;;5.50;5.50;;;;;10.82;71.90;100578.47;5066586;28;45289;-69
2021/12/29 03:47:48;;;;;;;;;5.00;2.00;;;;;10.55;72.57;100537.19;5052552;28;45637;-69
2021/12/29 03:50:14;;;;;;;;;6.25;3.50;;;;;10.57;72.50;100546.78;5070866;28;46198;-69
2021/12/29 03:52:39;;;;;;;;;4.75;2.75;;;;;10.52;72.85;100537.31;5069105;28;45421;-69
2021/12/29 03:55:05;;;;;;;;;4.00;2.75;;;;;10.58;73.21;100550.31;5069920;28;45750;-69
2021/12/29 03:57:30;;;;;;;;;4.50;2.00;;;;;10.56;73.29;100539.78;5071750;28;45640;-69
2021/12/29 03:59:56;;;;;;;;;4.75;3.25;;;;;10.71;73.43;100554.22;5069451;28;45638;-69
2021/12/29 04:02:21;;;;;;;;;3.50;2.00;;;;;10.55;73.36;100513.38;5067450;28;45400;-68
2021/12/29 04:04:47;;;;;;;;;4.00;2.75;;;;;10.68;73.79;100541.13;5067363;28;45497;-69
2021/12/29 04:07:13;;;;;;;;;4.50;3.00;;;;;10.66;73.60;100529.72;5071321;28;46440;-69
2021/12/29 04:09:38;;;;;;;;;5.25;2.00;;;;;10.59;73.65;100522.91;5067375;28;45397;-69
2021/12/29 04:12:05;;;;;;;;;6.00;1.75;;;;;10.40;74.17;100494.50;5072670;28;45533;-69
2021/12/29 04:14:30;;;;;;;;;2.75;1.50;;;;;10.45;73.98;100505.78;5066205;28;45472;-69
2021/12/29 04:16:57;;;;;;;;;2.00;2.00;;;;;10.53;74.36;100515.19;5065088;28;45934;-69
2021/12/29 04:19:29;;;;;;;;;2.50;1.50;;;;;10.53;74.00;100513.44;5067620;28;45818;-69
2021/12/29 04:21:56;;;;;;;;;11.00;3.00;;;;;10.55;74.16;100510.72;5071097;28;45521;-69
2021/12/29 04:24:23;;;;;;;;;4.25;3.00;;;;;10.52;74.41;100508.19;5058731;27;45520;-69
2021/12/29 04:26:48;;;;;;;;;6.00;3.25;;;;;10.57;74.42;100520.34;5068177;28;45679;-69
2021/12/29 04:29:14;;;;;;;;;5.00;3.25;;;;;10.45;74.66;100511.06;5066968;28;45634;-69
2021/12/29 04:31:40;;;;;;;;;4.25;2.25;;;;;10.44;74.61;100512.00;5050779;28;45454;-69
2021/12/29 04:34:06;;;;;;;;;8.75;3.00;;;;;10.39;74.79;100508.66;5055950;28;45297;-69
2021/12/29 04:36:32;;;;;;;;;3.25;1.25;;;;;10.38;74.98;100503.41;5051481;28;45452;-69
2021/12/29 04:38:59;;;;;;;;;4.25;2.25;;;;;10.50;74.64;100528.53;5069991;28;46368;-69
2021/12/29 04:41:25;;;;;;;;;5.25;3.50;;;;;10.48;75.02;100533.06;5070625;28;45546;-69
2021/12/29 04:43:51;;;;;;;;;1.75;1.75;;;;;10.38;75.12;100519.28;5070526;28;45423;-69
2021/12/29 04:46:18;;;;;;;;;6.50;3.00;;;;;10.43;75.56;100514.69;5070718;28;45765;-69
2021/12/29 04:48:58;;;;;;;;;6.50;2.25;;;;;10.43;74.94;100510.25;5074277;28;45573;-69
2021/12/29 04:51:32;;;;;;;;;1.50;1.00;;;;;10.53;74.77;100520.50;5072654;28;45392;-69
2021/12/29 04:53:57;;;;;;;;;5.50;2.25;;;;;10.52;75.03;100521.44;5075500;28;45481;-69
2021/12/29 04:56:23;;;;;;;;;3.50;1.00;;;;;10.37;75.18;100504.34;5064355;27;45594;-69
2021/12/29 04:58:48;;;;;;;;;5.00;2.75;;;;;10.41;75.03;100513.88;5073449;28;45310;-69
2021/12/29 05:01:13;;;;;;;;;3.75;1.25;;;;;10.50;74.96;100542.66;5073440;27;45483;-68
2021/12/29 05:03:41;;;;;;;;;2.75;2.00;;;;;10.27;75.44;100500.31;5076024;28;45851;-69
2021/12/29 05:08:32;;;;;;;;;5.25;2.50;;;;;10.47;75.59;100550.72;5077130;28;45489;-69
2021/12/29 05:11:04;;;;;;;;;4.25;3.00;;;;;10.32;75.20;100530.09;5074348;28;45386;-69
2021/12/29 05:13:32;;;;;;;;;4.00;2.75;;;;;10.49;75.69;100558.59;5074919;28;45398;-69
2021/12/29 05:15:58;;;;;;;;;3.25;2.50;;;;;10.34;75.35;100542.34;5070047;28;45329;-69
2021/12/29 05:18:28;;;;;;;;;3.00;3.00;;;;;10.44;75.23;100550.81;5076097;28;45603;-69
2021/12/29 05:20:54;;;;;;;;;4.25;3.00;;;;;10.53;75.38;100565.47;5058475;28;45847;-69
2021/12/29 05:23:21;;;;;;;;;0.00;0.00;;;;;10.46;75.77;100546.31;5075051;27;45549;-70
2021/12/29 05:25:47;;;;;;;;;5.75;3.00;;;;;10.49;75.50;100548.00;5055969;28;45475;-70
2021/12/29 05:28:13;;;;;;;;;6.50;1.75;;;;;10.47;75.75;100534.84;5074163;28;45346;-70
2021/12/29 05:30:38;;;;;;;;;4.25;4.00;;;;;10.57;75.71;100551.22;5073634;28;45432;-70
2021/12/29 05:33:05;;;;;;;;;3.25;3.00;;;;;10.55;75.46;100553.06;5075950;28;45830;-70
2021/12/29 05:35:31;;;;;;;;;6.50;3.00;;;;;10.45;75.35;100536.69;5074721;28;45453;-70
2021/12/29 05:37:56;;;;;;;;;10.75;3.50;;;;;10.52;75.08;100554.03;5074278;28;45385;-70
2021/12/29 05:40:23;;;;;;;;;4.00;2.75;;;;;10.51;75.50;100554.97;5072836;28;45306;-70
2021/12/29 05:42:48;;;;;;;;;4.25;1.50;;;;;10.34;75.87;100531.75;5074655;28;45497;-70
2021/12/29 05:45:15;;;;;;;;;3.50;3.50;;;;;10.49;75.60;100555.94;5073548;28;45411;-69
2021/12/29 05:47:41;;;;;;;;;3.25;2.00;;;;;10.35;75.77;100538.81;5072691;28;45532;-69
2021/12/29 05:50:11;;;;;;;;;6.75;2.50;;;;;10.48;75.33;100556.88;5073861;28;45482;-69
2021/12/29 05:52:36;;;;;;;;;4.00;2.75;;;;;10.37;76.16;100539.59;5071687;28;45490;-69
2021/12/29 05:55:03;;;;;;;;;5.75;3.50;;;;;10.51;75.41;100551.47;5074250;28;45309;-69
2021/12/29 05:57:28;;;;;;;;;5.50;2.75;;;;;10.41;76.15;100530.63;5073508;28;45443;-69
2021/12/29 05:59:53;;;;;;;;;11.25;3.25;;;;;10.41;75.43;100530.63;5075549;28;45333;-69
2021/12/29 06:02:19;;;;;;;;;3.00;2.00;;;;;10.50;76.26;100544.41;5071648;28;45788;-69
2021/12/29 06:04:44;;;;;;;;;3.25;3.25;;;;;10.27;75.94;100509.13;5072706;28;45312;-70
2021/12/29 06:07:10;;;;;;;;;2.00;2.00;;;;;10.59;75.84;100565.25;5073887;28;46145;-70
2021/12/29 06:09:35;;;;;;;;;3.75;3.00;;;;;10.61;76.25;100560.78;5073393;28;45533;-70
2021/12/29 06:12:00;;;;;;;;;6.50;2.75;;;;;10.59;76.27;100562.59;5076217;28;45458;-70
2021/12/29 06:14:26;;;;;;;;;3.00;3.00;;;;;10.53;75.22;100549.59;5072992;28;45502;-70
2021/12/29 06:16:51;;;;;;;;;4.50;1.75;;;;;10.62;75.60;100565.16;5073694;28;46304;-70
2021/12/29 06:19:17;;;;;;;;;2.75;2.00;;;;;10.58;75.82;100555.59;5072340;28;45804;-69
2021/12/29 06:21:42;;;;;;;;;2.75;1.00;;;;;10.59;75.80;100550.25;5074143;28;45478;-69
2021/12/29 06:24:08;;;;;;;;;4.50;2.00;;;;;10.62;76.06;100560.72;5075427;28;45359;-69
2021/12/29 06:26:36;;;;;;;;;2.00;2.00;;;;;10.66;76.38;100562.31;5073740;28;45485;-69
2021/12/29 06:29:01;;;;;;;;;4.00;2.00;;;;;10.64;75.69;100563.31;5073477;28;45458;-70
2021/12/29 06:31:27;;;;;;;;;2.00;2.00;;;;;10.61;76.37;100560.78;5071010;27;45788;-69
2021/12/29 06:33:52;;;;;;;;;1.75;1.75;;;;;10.68;75.76;100573.72;5054518;28;45253;-69
2021/12/29 06:36:19;;;;;;;;;5.00;2.50;;;;;10.68;75.77;100568.44;5075481;28;45963;-70
2021/12/29 06:38:44;;;;;;;;;3.25;2.25;;;;;10.60;75.67;100562.56;5072624;28;45522;-70
2021/12/29 06:41:10;;;;;;;;;5.25;1.75;;;;;10.66;76.16;100567.63;5073390;28;45328;-70
2021/12/29 06:43:35;;;;;;;;;5.50;2.00;;;;;10.66;75.41;100567.63;5073993;28;45347;-70
2021/12/29 06:46:00;;;;;;;;;3.50;3.25;;;;;10.71;76.05;100563.94;5072204;28;45920;-70
2021/12/29 06:48:26;;;;;;;;;6.50;4.75;;;;;10.60;75.58;100553.75;5074708;28;45356;-70
2021/12/29 06:50:51;;;;;;;;;5.25;2.00;;;;;10.63;75.95;100553.66;5063250;28;45473;-71
2021/12/29 06:53:17;;;;;;;;;4.25;1.75;;;;;10.59;75.68;100538.78;5069429;28;45736;-70
2021/12/29 06:55:43;;;;;;;;;7.50;3.00;;;;;10.71;75.87;100564.81;5073513;28;49653;-71
2021/12/29 06:58:12;;;;;;;;;5.75;2.50;;;;;10.60;75.93;100554.63;5072003;28;45632;-70
2021/12/29 07:00:37;;;;;;;;;6.00;3.00;;;;;10.53;75.93;100549.59;5052521;28;45657;-70
2021/12/29 07:03:04;;;;;;;;;8.25;3.00;;;;;10.61;75.92;100566.91;5073605;28;45447;-70
2021/12/29 07:05:30;;;;;;;;;6.00;5.00;;;;;10.55;76.76;100555.72;5072980;28;45468;-70
2021/12/29 07:07:56;;;;;;;;;4.50;3.00;;;;;10.71;77.11;100580.69;5071688;28;45450;-70
2021/12/29 07:10:21;;;;;;;;;5.75;4.75;;;;;10.55;76.86;100553.91;5072075;28;45636;-70
2021/12/29 07:12:47;;;;;;;;;5.00;4.00;;;;;10.73;77.48;100578.84;5073378;28;45483;-70
2021/12/29 07:15:13;;;;;;;;;8.00;4.50;;;;;10.74;77.66;100585.88;5073645;28;47214;-70
2021/12/29 07:17:38;;;;;;;;;4.50;3.00;;;;;10.72;77.48;100587.72;5072504;28;45958;-70
2021/12/29 07:20:04;;;;;;;;;3.75;3.75;;;;;10.72;77.82;100593.00;5070289;28;45828;-70
2021/12/29 07:22:31;;;;;;;;;4.00;3.00;;;;;10.64;77.65;100584.47;5062908;28;45709;-70
2021/12/29 07:24:57;;;;;;;;;4.50;4.50;;;;;10.55;77.63;100574.22;5072623;28;46510;-70
2021/12/29 07:27:22;;;;;;;;;10.50;3.50;;;;;10.67;78.45;100602.88;5074369;28;45423;-70
2021/12/29 07:29:48;;;;;;;;;10.00;5.00;;;;;10.66;77.98;100599.38;5056324;28;45495;-70
2021/12/29 07:32:13;;;;;;;;;6.00;4.75;;;;;10.63;78.59;100588.06;5072082;28;45359;-70
2021/12/29 07:34:39;;;;;;;;;5.00;5.00;;;;;10.44;78.27;100556.09;5072796;28;45718;-70
2021/12/29 07:37:04;;;;;;;;;11.00;4.00;;;;;10.64;78.40;100592.41;5071075;28;45444;-70
2021/12/29 07:39:30;;;;;;;;;7.50;4.75;;;;;10.48;78.63;100557.72;5073385;28;45406;-70
2021/12/29 07:41:55;;;;;;;;;4.50;4.00;;;;;10.41;78.67;100543.88;5074886;28;45496;-70
2021/12/29 07:44:23;;;;;;;;;5.00;1.00;;;;;10.60;78.73;100588.16;5072436;28;46794;-70
2021/12/29 07:46:52;;;;;;;;;4.75;4.50;;;;;10.58;78.94;100592.63;5067270;28;45528;-70
2021/12/29 07:49:18;;;;;;;;;8.00;4.25;;;;;10.38;79.27;100545.75;5071477;28;45404;-70
2021/12/29 07:51:43;;;;;;;;;7.00;5.25;;;;;10.49;79.64;100554.16;5072544;28;45424;-70
2021/12/29 07:54:09;;;;;;;;;5.75;5.00;;;;;10.46;79.11;100563.06;5073913;28;45521;-70
2021/12/29 07:56:35;;;;;;;;;6.00;4.25;;;;;10.40;79.32;100550.06;5072725;28;45415;-70
2021/12/29 07:59:00;;;;;;;;;9.75;5.25;;;;;10.41;79.65;100557.09;5072482;28;45406;-70
2021/12/29 08:01:25;;;;;;;;;8.00;5.00;;;;;10.45;79.29;100560.47;5067973;28;45477;-70
2021/12/29 08:03:51;;;;;;;;;10.25;6.25;;;;;10.40;79.73;100552.69;5069668;28;46220;-70
2021/12/29 08:06:18;;;;;;;;;10.25;7.75;;;;;10.49;79.93;100558.59;5057222;28;45381;-70
2021/12/29 08:08:44;;;;;;;;;3.50;3.50;;;;;10.55;79.84;100579.53;5073005;28;45565;-70
2021/12/29 08:11:10;;;;;;;;;7.50;5.00;;;;;10.54;79.89;100572.50;5063697;28;45444;-70
2021/12/29 08:13:35;;;;;;;;;13.25;7.00;;;;;10.21;79.93;100517.25;5072986;28;46010;-70
2021/12/29 08:16:01;;;;;;;;;12.00;5.75;;;;;10.53;80.12;100574.31;5066428;27;45388;-70
2021/12/29 08:18:26;;;;;;;;;10.00;5.00;;;;;10.50;79.90;100574.41;5076987;28;45291;-70
2021/12/29 08:20:51;;;;;;;;;14.25;11.50;;;;;10.58;80.16;100580.28;5076663;28;45446;-70
2021/12/29 08:23:17;;;;;;;;;10.00;4.00;;;;;10.41;80.01;100551.81;5075866;28;46300;-70
2021/12/29 08:25:42;;;;;;;;;5.25;5.00;;;;;10.49;80.56;100556.78;5075702;28;45364;-70
2021/12/29 08:28:08;;;;;;;;;13.50;6.00;;;;;10.43;80.00;100552.59;5074484;28;45497;-70
2021/12/29 08:30:34;;;;;;;;;11.00;7.75;;;;;10.61;79.95;100574.00;5072784;28;45444;-70
2021/12/29 08:32:59;;;;;;;;;6.00;4.50;;;;;10.51;80.40;100551.47;5075634;28;45443;-70
2021/12/29 08:35:27;;;;;;;;;9.50;5.75;;;;;10.62;80.56;100573.09;5069344;28;45308;-70
2021/12/29 08:37:53;;;;;;;;;11.00;6.25;;;;;10.51;80.64;100556.75;5048568;28;45486;-70
2021/12/29 08:40:19;;;;;;;;;8.00;6.50;;;;;10.51;80.69;100554.97;5064117;27;45587;-70
2021/12/29 08:42:47;;;;;;;;;10.50;4.00;;;;;10.53;80.60;100547.84;5075450;28;45514;-70
2021/12/29 08:45:15;;;;;;;;;14.25;10.00;;;;;10.58;80.87;100547.66;5056073;28;46016;-70
2021/12/29 08:47:41;;;;;;;;;14.50;6.25;;;;;10.63;80.43;100551.84;5073530;28;45578;-70
2021/12/29 08:50:10;;;;;;;;;12.50;10.25;;;;;10.56;80.67;100538.91;5074785;28;45450;-70
2021/12/29 08:52:37;;;;;;;;;9.75;7.25;;;;;10.58;80.79;100548.50;5056617;28;45495;-70
2021/12/29 08:55:04;;;;;;;;;10.25;10.25;;;;;10.54;80.51;100525.75;5055717;28;45494;-70
2021/12/29 08:57:29;;;;;;;;;9.75;5.50;;;;;10.64;80.41;100545.63;5075760;28;45340;-70
2021/12/29 08:59:55;;;;;;;;;16.50;7.25;;;;;10.59;80.87;100544.06;5075665;28;45369;-70
2021/12/29 09:02:21;;;;;;;;;16.00;9.50;;;;;10.65;80.83;100546.53;5072281;28;47274;-70
2021/12/29 09:04:46;;;;;;;;;10.00;6.75;;;;;10.55;80.77;100519.53;5074717;28;45441;-70
2021/12/29 09:07:11;;;;;;;;;9.25;6.75;;;;;10.54;80.48;100525.75;5073580;27;45665;-70
2021/12/29 09:09:37;;;;;;;;;6.25;5.00;;;;;10.53;80.38;100526.69;5057402;28;45609;-69
2021/12/29 09:12:03;;;;;;;;;10.25;6.00;;;;;10.72;80.53;100542.72;5059480;28;46263;-69
2021/12/29 09:14:28;;;;;;;;;17.00;6.00;;;;;10.74;80.10;100547.97;5074830;28;45537;-69
2021/12/29 09:16:53;;;;;;;;;16.75;7.00;;;;;10.57;80.29;100522.97;5071502;28;45450;-70
2021/12/29 09:19:19;;;;;;;;;12.00;7.25;;;;;10.64;80.04;100527.09;5074759;28;45588;-69
2021/12/29 09:21:44;;;;;;;;;9.50;4.00;;;;;10.61;80.99;100526.38;5074049;28;45392;-70
2021/12/29 09:24:11;;;;;;;;;13.75;5.50;;;;;10.59;80.49;100522.91;5076551;28;45487;-70
2021/12/29 09:26:37;;;;;;;;;14.50;7.50;;;;;10.72;79.93;100550.66;5074284;28;45464;-70
2021/12/29 09:29:04;;;;;;;;;9.25;4.75;;;;;10.44;80.59;100504.06;5074792;28;45307;-70
2021/12/29 09:31:30;;;;;;;;;9.50;3.25;;;;;10.52;80.94;100521.44;5073568;28;46336;-70
2021/12/29 09:33:56;;;;;;;;;8.00;3.75;;;;;10.63;80.44;100541.28;5073076;28;45494;-70
2021/12/29 09:36:22;;;;;;;;;19.25;11.50;;;;;10.47;80.41;100503.09;5076413;28;45461;-70
2021/12/29 09:38:48;;;;;;;;;12.75;5.00;;;;;10.65;80.48;100542.09;5071982;27;45538;-69
2021/12/29 09:41:16;;;;;;;;;13.50;7.25;;;;;10.67;80.60;100540.22;5056917;28;47309;-69
2021/12/29 09:43:43;;;;;;;;;14.00;6.50;;;;;10.70;80.38;100549.84;5061768;28;46005;-70
2021/12/29 09:46:10;;;;;;;;;8.75;5.00;;;;;10.72;80.59;100549.78;5072265;28;45412;-70
2021/12/29 09:48:36;;;;;;;;;7.25;5.50;;;;;10.70;80.69;100536.59;5054883;28;45496;-70
2021/12/29 09:51:05;;;;;;;;;9.00;5.75;;;;;10.66;80.84;100532.34;5074371;28;45359;-70
2021/12/29 09:53:30;;;;;;;;;7.75;4.00;;;;;10.72;80.43;100534.78;5062741;28;45388;-70
2021/12/29 09:55:56;;;;;;;;;11.75;4.75;;;;;10.59;80.16;100505.28;5074612;28;45400;-69
2021/12/29 09:58:21;;;;;;;;;6.25;4.25;;;;;10.66;80.45;100519.13;5074527;28;45517;-69
2021/12/29 10:00:50;;;;;;;;;6.25;5.00;;;;;10.75;79.90;100547.03;5070242;28;46039;-70
2021/12/29 10:03:18;;;;;;;;;5.00;4.00;;;;;10.68;80.41;100527.88;5072175;28;45360;-69
2021/12/29 10:05:47;;;;;;;;;3.00;3.00;;;;;10.64;79.88;100494.50;5081225;27;45519;-70
2021/12/29 10:08:16;;;;;;;;;7.00;4.75;;;;;10.66;80.09;100482.94;5073089;28;45849;-70
2021/12/29 10:10:47;;;;;;;;;8.75;3.50;;;;;10.66;80.26;100488.22;5073888;28;45482;-69
2021/12/29 10:13:13;;;;;;;;;8.00;4.75;;;;;10.78;79.90;100494.81;5071741;28;45429;-69
2021/12/29 10:15:43;;;;;;;;;8.75;4.50;;;;;10.70;79.95;100483.66;5039167;28;45565;-70
2021/12/29 10:18:12;;;;;;;;;9.75;2.00;;;;;10.77;80.29;100487.81;5075567;28;45869;-70
2021/12/29 10:20:48;;;;;;;;;7.00;3.50;;;;;10.75;79.90;100491.44;5073706;28;46111;-69
2021/12/29 10:23:41;;;;;;;;;9.50;5.25;;;;;10.73;79.41;100480.91;5072947;27;45371;-70
2021/12/29 10:26:22;;;;;;;;;6.50;4.00;;;;;10.65;79.59;100478.56;5068991;28;45616;-71
2021/12/29 10:28:53;;;;;;;;;8.75;6.50;;;;;10.69;79.74;100493.41;5078050;27;45510;-70
2021/12/29 10:31:30;;;;;;;;;12.50;5.75;;;;;10.69;79.87;100487.25;5061446;28;47410;-70
2021/12/29 10:34:02;;;;;;;;;13.50;4.75;;;;;10.31;79.81;100415.50;5058859;28;45563;-70
2021/12/29 10:36:31;;;;;;;;;8.00;3.75;;;;;10.59;80.00;100462.03;5074301;28;45298;-70
2021/12/29 10:39:20;;;;;;;;;9.00;6.75;;;;;10.74;80.13;100492.38;5074397;28;45546;-70
2021/12/29 10:42:13;;;;;;;;;6.50;4.00;;;;;10.59;79.91;100456.75;5073554;28;45343;-70
2021/12/29 10:44:39;;;;;;;;;5.50;3.25;;;;;10.67;80.54;100471.41;5072707;28;45447;-70
2021/12/29 10:47:20;;;;;;;;;9.75;5.25;;;;;10.65;80.11;100478.56;5068475;28;45509;-70
2021/12/29 10:50:18;;;;;;;;;9.00;4.25;;;;;10.47;80.33;100450.19;5071856;28;45514;-70
2021/12/29 10:52:45;;;;;;;;;13.50;5.50;;;;;10.65;79.83;100480.38;5071522;28;46208;-70
2021/12/29 10:55:31;;;;;;;;;10.50;5.75;;;;;10.64;80.37;100483.91;5073333;28;45638;-70
2021/12/29 10:58:05;;;;;;;;;7.00;5.00;;;;;10.41;80.27;100439.81;5063406;28;45257;-70
2021/12/29 11:00:31;;;;;;;;;11.00;6.50;;;;;10.48;80.10;100443.97;5070877;28;45431;-70
2021/12/29 11:03:10;;;;;;;;;6.50;6.50;;;;;10.56;79.99;100448.94;5072947;28;46278;-71
2021/12/29 11:05:41;;;;;;;;;12.00;6.75;;;;;10.62;80.19;100454.03;5071240;27;45480;-71
2021/12/29 11:08:09;;;;;;;;;9.75;6.00;;;;;10.65;80.54;100459.19;5072834;27;45186;-70
2021/12/29 11:10:35;;;;;;;;;10.00;5.25;;;;;10.69;80.55;100464.28;5072017;28;45375;-70
2021/12/29 11:13:00;;;;;;;;;6.75;3.75;;;;;10.63;79.95;100450.44;5052952;28;47129;-70
2021/12/29 11:15:29;;;;;;;;;8.25;4.75;;;;;10.68;80.14;100461.72;5071349;28;45465;-70
2021/12/29 11:18:01;;;;;;;;;6.25;4.00;;;;;10.61;80.09;100452.28;5074966;28;45362;-70
2021/12/29 11:20:28;;;;;;;;;12.00;4.75;;;;;10.08;79.97;100363.44;5069234;27;45477;-69
2021/12/29 11:23:17;;;;;;;;;6.75;5.00;;;;;10.57;80.70;100448.88;5070627;28;46083;-70
2021/12/29 11:25:44;;;;;;;;;13.75;3.00;;;;;10.68;80.20;100469.66;5072758;28;45411;-69